createdAt,value
2023-02-18T00:00:50.356Z,1017.35
2023-02-18T00:01:50.335Z,1017.37
2023-02-18T00:02:52.542Z,1017.39
2023-02-18T00:03:50.357Z,1017.40
2023-02-18T00:04:50.312Z,1017.39
2023-02-18T00:05:50.306Z,1017.41
2023-02-18T00:06:50.304Z,1017.43
2023-02-18T00:07:50.321Z,1017.42
2023-02-18T00:08:50.289Z,1017.46
2023-02-18T00:09:50.247Z,1017.42
2023-02-18T00:10:50.263Z,1017.44
2023-02-18T00:11:50.249Z,1017.46
2023-02-18T00:12:50.236Z,1017.48
2023-02-18T00:13:50.205Z,1017.44
2023-02-18T00:14:50.207Z,1017.38
2023-02-18T00:15:50.243Z,1017.36
2023-02-18T00:16:50.187Z,1017.38
2023-02-18T00:17:50.177Z,1017.42
2023-02-18T00:18:50.164Z,1017.39
2023-02-18T00:19:50.137Z,1017.42
2023-02-18T00:20:50.135Z,1017.40
2023-02-18T00:21:50.142Z,1017.40
2023-02-18T00:22:50.108Z,1017.42
2023-02-18T00:23:50.101Z,1017.41
2023-02-18T00:24:50.101Z,1017.44
2023-02-18T00:25:50.160Z,1017.41
2023-02-18T00:26:50.068Z,1017.39
2023-02-18T00:27:50.069Z,1017.35
2023-02-18T00:28:50.041Z,1017.36
2023-02-18T00:29:50.083Z,1017.32
2023-02-18T00:30:50.033Z,1017.33
2023-02-18T00:31:50.186Z,1017.33
2023-02-18T00:32:49.999Z,1017.30
2023-02-18T00:33:49.990Z,1017.22
2023-02-18T00:34:49.981Z,1017.23
2023-02-18T00:35:49.962Z,1017.18
2023-02-18T00:36:49.980Z,1017.20
2023-02-18T00:37:49.944Z,1017.22
2023-02-18T00:38:49.964Z,1017.23
2023-02-18T00:39:49.933Z,1017.22
2023-02-18T00:40:49.910Z,1017.28
2023-02-18T00:41:49.893Z,1017.27
2023-02-18T00:42:49.894Z,1017.24
2023-02-18T00:43:49.893Z,1017.24
2023-02-18T00:44:49.871Z,1017.22
2023-02-18T00:45:49.849Z,1017.19
2023-02-18T00:46:50.038Z,1017.15
2023-02-18T00:47:49.831Z,1017.07
2023-02-18T00:48:49.852Z,1017.04
2023-02-18T00:49:49.822Z,1017.00
2023-02-18T00:50:49.803Z,1016.96
2023-02-18T00:51:49.784Z,1016.96
2023-02-18T00:52:49.784Z,1016.95
2023-02-18T00:53:49.772Z,1016.93
2023-02-18T00:54:49.752Z,1016.86
2023-02-18T00:55:49.775Z,1016.83
2023-02-18T00:56:49.743Z,1016.81
2023-02-18T00:57:49.715Z,1016.81
2023-02-18T00:58:49.725Z,1016.86
2023-02-18T00:59:49.694Z,1016.80
2023-02-18T01:00:49.696Z,1016.85
2023-02-18T01:01:49.692Z,1016.84
2023-02-18T01:02:49.678Z,1016.89
2023-02-18T01:03:49.665Z,1016.95
2023-02-18T01:04:49.741Z,1016.90
2023-02-18T01:05:49.628Z,1016.86
2023-02-18T01:06:49.623Z,1016.83
2023-02-18T01:07:49.610Z,1016.84
2023-02-18T01:08:49.624Z,1016.80
2023-02-18T01:09:49.596Z,1016.81
2023-02-18T01:10:49.581Z,1016.84
2023-02-18T01:11:49.562Z,1016.77
2023-02-18T01:12:49.572Z,1016.77
2023-02-18T01:13:49.556Z,1016.80
2023-02-18T01:14:49.549Z,1016.88
2023-02-18T01:15:49.592Z,1016.87
2023-02-18T01:16:49.521Z,1016.89
2023-02-18T01:17:49.516Z,1016.87
2023-02-18T01:18:49.500Z,1016.84
2023-02-18T01:19:49.474Z,1016.88
2023-02-18T01:20:49.478Z,1016.89
2023-02-18T01:21:49.463Z,1016.85
2023-02-18T01:22:49.477Z,1016.87
2023-02-18T01:23:49.472Z,1016.89
2023-02-18T01:24:49.424Z,1016.83
2023-02-18T01:25:49.428Z,1016.80
2023-02-18T01:26:49.408Z,1016.79
2023-02-18T01:27:49.404Z,1016.80
2023-02-18T01:28:49.388Z,1016.77
2023-02-18T01:29:49.547Z,1016.76
2023-02-18T01:30:51.318Z,1016.75
2023-02-18T01:31:49.531Z,1016.71
2023-02-18T01:32:49.357Z,1016.73
2023-02-18T01:33:49.505Z,1016.80
2023-02-18T01:34:49.323Z,1016.82
2023-02-18T01:35:49.390Z,1016.83
2023-02-18T01:36:49.287Z,1016.82
2023-02-18T01:37:49.387Z,1016.74
2023-02-18T01:38:49.284Z,1016.74
2023-02-18T01:39:49.258Z,1016.66
2023-02-18T01:40:49.249Z,1016.75
2023-02-18T01:41:49.238Z,1016.71
2023-02-18T01:42:49.223Z,1016.70
2023-02-18T01:43:49.225Z,1016.74
2023-02-18T01:44:49.205Z,1016.74
2023-02-18T01:45:49.176Z,1016.66
2023-02-18T01:46:49.261Z,1016.56
2023-02-18T01:47:49.164Z,1016.55
2023-02-18T01:48:49.177Z,1016.56
2023-02-18T01:49:49.148Z,1016.54
2023-02-18T01:50:49.148Z,1016.53
2023-02-18T01:51:49.116Z,1016.52
2023-02-18T01:52:49.105Z,1016.52
2023-02-18T01:53:49.105Z,1016.56
2023-02-18T01:54:49.104Z,1016.54
2023-02-18T01:55:49.096Z,1016.64
2023-02-18T01:56:49.075Z,1016.64
2023-02-18T01:57:49.047Z,1016.61
2023-02-18T01:58:49.066Z,1016.60
2023-02-18T01:59:49.036Z,1016.66
2023-02-18T02:00:49.036Z,1016.61
2023-02-18T02:01:49.025Z,1016.60
2023-02-18T02:02:48.996Z,1016.61
2023-02-18T02:03:49.007Z,1016.56
2023-02-18T02:04:48.982Z,1016.54
2023-02-18T02:05:48.957Z,1016.56
2023-02-18T02:06:48.946Z,1016.54
2023-02-18T02:07:48.948Z,1016.53
2023-02-18T02:08:48.949Z,1016.54
2023-02-18T02:09:48.926Z,1016.57
2023-02-18T02:10:48.918Z,1016.58
2023-02-18T02:11:48.910Z,1016.52
2023-02-18T02:12:48.899Z,1016.51
2023-02-18T02:13:48.876Z,1016.49
2023-02-18T02:14:48.867Z,1016.47
2023-02-18T02:15:48.856Z,1016.46
2023-02-18T02:16:48.862Z,1016.40
2023-02-18T02:17:48.849Z,1016.38
2023-02-18T02:18:48.818Z,1016.33
2023-02-18T02:19:48.820Z,1016.29
2023-02-18T02:20:48.820Z,1016.25
2023-02-18T02:21:48.793Z,1016.22
2023-02-18T02:22:48.791Z,1016.26
2023-02-18T02:23:48.780Z,1016.21
2023-02-18T02:24:48.772Z,1016.25
2023-02-18T02:25:48.740Z,1016.22
2023-02-18T02:26:48.742Z,1016.24
2023-02-18T02:27:48.721Z,1016.22
2023-02-18T02:28:48.721Z,1016.19
2023-02-18T02:29:48.691Z,1016.17
2023-02-18T02:30:48.714Z,1016.14
2023-02-18T02:31:48.746Z,1016.18
2023-02-18T02:32:48.686Z,1016.16
2023-02-18T02:33:48.654Z,1016.12
2023-02-18T02:34:48.662Z,1016.13
2023-02-18T02:35:48.623Z,1016.11
2023-02-18T02:36:48.643Z,1016.08
2023-02-18T02:37:48.632Z,1016.04
2023-02-18T02:38:48.611Z,1016.05
2023-02-18T02:39:48.608Z,1016.10
2023-02-18T02:40:48.576Z,1016.07
2023-02-18T02:41:48.573Z,1016.08
2023-02-18T02:42:48.564Z,1016.08
2023-02-18T02:43:48.544Z,1016.08
2023-02-18T02:44:48.535Z,1016.07
2023-02-18T02:45:48.601Z,1016.07
2023-02-18T02:46:48.516Z,1016.03
2023-02-18T02:47:48.519Z,1015.98
2023-02-18T02:48:48.487Z,1015.96
2023-02-18T02:49:48.499Z,1015.93
2023-02-18T02:50:48.469Z,1015.95
2023-02-18T02:51:48.459Z,1015.96
2023-02-18T02:52:48.447Z,1015.94
2023-02-18T02:53:48.439Z,1015.96
2023-02-18T02:54:48.457Z,1015.96
2023-02-18T02:55:48.418Z,1015.93
2023-02-18T02:56:48.432Z,1015.97
2023-02-18T02:57:48.416Z,1015.91
2023-02-18T02:58:48.383Z,1015.93
2023-02-18T02:59:48.395Z,1015.92
2023-02-18T03:00:48.402Z,1015.92
2023-02-18T03:01:48.368Z,1015.90
2023-02-18T03:02:48.404Z,1015.91
2023-02-18T03:03:48.333Z,1015.87
2023-02-18T03:04:48.334Z,1015.89
2023-02-18T03:05:48.307Z,1015.89
2023-02-18T03:06:48.312Z,1015.83
2023-02-18T03:07:48.297Z,1015.85
2023-02-18T03:08:48.280Z,1015.80
2023-02-18T03:09:48.278Z,1015.86
2023-02-18T03:10:48.266Z,1015.86
2023-02-18T03:11:48.253Z,1015.88
2023-02-18T03:12:48.227Z,1015.82
2023-02-18T03:13:48.249Z,1015.79
2023-02-18T03:14:48.217Z,1015.75
2023-02-18T03:15:48.228Z,1015.78
2023-02-18T03:16:48.245Z,1015.74
2023-02-18T03:17:48.177Z,1015.70
2023-02-18T03:18:48.175Z,1015.65
2023-02-18T03:19:48.210Z,1015.58
2023-02-18T03:20:48.138Z,1015.57
2023-02-18T03:21:48.130Z,1015.48
2023-02-18T03:22:48.127Z,1015.48
2023-02-18T03:23:48.119Z,1015.50
2023-02-18T03:24:48.126Z,1015.44
2023-02-18T03:25:48.093Z,1015.42
2023-02-18T03:26:48.070Z,1015.37
2023-02-18T03:27:48.088Z,1015.39
2023-02-18T03:28:48.052Z,1015.37
2023-02-18T03:29:48.076Z,1015.36
2023-02-18T03:30:48.043Z,1015.35
2023-02-18T03:31:48.091Z,1015.30
2023-02-18T03:32:48.008Z,1015.32
2023-02-18T03:33:48.023Z,1015.29
2023-02-18T03:34:48.013Z,1015.28
2023-02-18T03:35:47.998Z,1015.31
2023-02-18T03:36:47.975Z,1015.31
2023-02-18T03:37:47.959Z,1015.30
2023-02-18T03:38:47.941Z,1015.30
2023-02-18T03:39:47.942Z,1015.32
2023-02-18T03:40:47.922Z,1015.31
2023-02-18T03:41:47.933Z,1015.28
2023-02-18T03:42:47.892Z,1015.26
2023-02-18T03:43:47.915Z,1015.26
2023-02-18T03:44:47.902Z,1015.23
2023-02-18T03:45:47.872Z,1015.26
2023-02-18T03:46:47.855Z,1015.25
2023-02-18T03:47:47.866Z,1015.25
2023-02-18T03:48:47.826Z,1015.29
2023-02-18T03:49:47.825Z,1015.25
2023-02-18T03:50:47.868Z,1015.27
2023-02-18T03:51:47.810Z,1015.26
2023-02-18T03:52:47.799Z,1015.26
2023-02-18T03:53:47.783Z,1015.34
2023-02-18T03:54:47.753Z,1015.30
2023-02-18T03:55:47.789Z,1015.30
2023-02-18T03:56:47.733Z,1015.26
2023-02-18T03:57:47.734Z,1015.29
2023-02-18T03:58:47.714Z,1015.26
2023-02-18T03:59:47.746Z,1015.32
2023-02-18T04:00:47.703Z,1015.28
2023-02-18T04:01:47.691Z,1015.31
2023-02-18T04:02:47.701Z,1015.33
2023-02-18T04:03:47.662Z,1015.32
2023-02-18T04:04:47.647Z,1015.31
2023-02-18T04:05:47.662Z,1015.31
2023-02-18T04:06:47.623Z,1015.31
2023-02-18T04:07:47.622Z,1015.31
2023-02-18T04:08:47.605Z,1015.26
2023-02-18T04:09:47.593Z,1015.21
2023-02-18T04:10:47.602Z,1015.27
2023-02-18T04:11:47.583Z,1015.26
2023-02-18T04:12:47.560Z,1015.23
2023-02-18T04:13:47.566Z,1015.23
2023-02-18T04:14:47.543Z,1015.26
2023-02-18T04:15:47.532Z,1015.23
2023-02-18T04:16:47.568Z,1015.23
2023-02-18T04:17:47.502Z,1015.21
2023-02-18T04:18:47.491Z,1015.17
2023-02-18T04:19:47.495Z,1015.18
2023-02-18T04:20:47.493Z,1015.15
2023-02-18T04:21:47.512Z,1015.13
2023-02-18T04:22:47.453Z,1015.14
2023-02-18T04:23:47.436Z,1015.08
2023-02-18T04:24:47.423Z,1015.10
2023-02-18T04:25:47.864Z,1015.08
2023-02-18T04:26:47.412Z,1015.05
2023-02-18T04:27:47.399Z,1015.01
2023-02-18T04:28:47.398Z,1015.05
2023-02-18T04:29:47.397Z,1015.01
2023-02-18T04:30:47.503Z,1015.01
2023-02-18T04:31:47.440Z,1014.99
2023-02-18T04:32:47.347Z,1014.99
2023-02-18T04:33:47.332Z,1014.95
2023-02-18T04:34:47.341Z,1014.94
2023-02-18T04:35:47.317Z,1014.99
2023-02-18T04:36:47.332Z,1014.99
2023-02-18T04:37:47.288Z,1014.99
2023-02-18T04:38:47.288Z,1015.03
2023-02-18T04:39:47.266Z,1015.04
2023-02-18T04:40:47.288Z,1015.06
2023-02-18T04:41:47.241Z,1015.04
2023-02-18T04:42:47.231Z,1015.01
2023-02-18T04:43:47.219Z,1015.01
2023-02-18T04:44:47.652Z,1015.03
2023-02-18T04:45:47.235Z,1015.04
2023-02-18T04:46:47.190Z,1015.03
2023-02-18T04:47:47.187Z,1015.00
2023-02-18T04:48:47.178Z,1015.01
2023-02-18T04:49:47.157Z,1015.01
2023-02-18T04:50:47.152Z,1014.98
2023-02-18T04:51:47.131Z,1014.93
2023-02-18T04:52:47.149Z,1014.94
2023-02-18T04:53:47.111Z,1014.90
2023-02-18T04:54:47.117Z,1014.88
2023-02-18T04:55:47.101Z,1014.94
2023-02-18T04:56:47.085Z,1014.91
2023-02-18T04:57:47.062Z,1014.88
2023-02-18T04:58:47.063Z,1014.85
2023-02-18T04:59:47.043Z,1014.88
2023-02-18T05:00:47.075Z,1014.84
2023-02-18T05:01:47.022Z,1014.83
2023-02-18T05:02:47.035Z,1014.83
2023-02-18T05:03:47.050Z,1014.78
2023-02-18T05:04:47.028Z,1014.78
2023-02-18T05:05:47.014Z,1014.78
2023-02-18T05:06:46.979Z,1014.79
2023-02-18T05:07:46.967Z,1014.82
2023-02-18T05:08:46.956Z,1014.79
2023-02-18T05:09:46.937Z,1014.79
2023-02-18T05:10:46.993Z,1014.77
2023-02-18T05:11:46.919Z,1014.75
2023-02-18T05:12:46.918Z,1014.75
2023-02-18T05:13:46.919Z,1014.76
2023-02-18T05:14:46.890Z,1014.73
2023-02-18T05:15:46.906Z,1014.73
2023-02-18T05:16:46.881Z,1014.72
2023-02-18T05:17:46.851Z,1014.75
2023-02-18T05:18:46.843Z,1014.74
2023-02-18T05:19:46.850Z,1014.76
2023-02-18T05:20:46.830Z,1014.75
2023-02-18T05:21:46.823Z,1014.77
2023-02-18T05:22:46.820Z,1014.72
2023-02-18T05:23:46.816Z,1014.71
2023-02-18T05:24:46.791Z,1014.67
2023-02-18T05:25:46.785Z,1014.67
2023-02-18T05:26:46.788Z,1014.66
2023-02-18T05:27:46.744Z,1014.64
2023-02-18T05:28:46.770Z,1014.66
2023-02-18T05:29:46.747Z,1014.62
2023-02-18T05:30:46.747Z,1014.63
2023-02-18T05:31:46.877Z,1014.64
2023-02-18T05:32:46.719Z,1014.57
2023-02-18T05:33:46.711Z,1014.64
2023-02-18T05:34:46.677Z,1014.57
2023-02-18T05:35:46.666Z,1014.55
2023-02-18T05:36:46.662Z,1014.57
2023-02-18T05:37:46.637Z,1014.52
2023-02-18T05:38:46.637Z,1014.54
2023-02-18T05:39:46.616Z,1014.55
2023-02-18T05:40:46.597Z,1014.56
2023-02-18T05:41:46.624Z,1014.51
2023-02-18T05:42:46.595Z,1014.56
2023-02-18T05:43:46.578Z,1014.57
2023-02-18T05:44:46.566Z,1014.55
2023-02-18T05:45:46.569Z,1014.56
2023-02-18T05:46:46.604Z,1014.54
2023-02-18T05:47:46.538Z,1014.55
2023-02-18T05:48:46.526Z,1014.55
2023-02-18T05:49:46.507Z,1014.55
2023-02-18T05:50:46.489Z,1014.51
2023-02-18T05:51:46.498Z,1014.51
2023-02-18T05:52:46.482Z,1014.55
2023-02-18T05:53:46.481Z,1014.52
2023-02-18T05:54:46.448Z,1014.57
2023-02-18T05:55:46.469Z,1014.52
2023-02-18T05:56:46.438Z,1014.51
2023-02-18T05:57:46.418Z,1014.45
2023-02-18T05:58:46.408Z,1014.41
2023-02-18T05:59:46.411Z,1014.42
2023-02-18T06:00:46.381Z,1014.38
2023-02-18T06:01:46.411Z,1014.40
2023-02-18T06:02:46.446Z,1014.40
2023-02-18T06:03:46.394Z,1014.41
2023-02-18T06:04:46.360Z,1014.37
2023-02-18T06:05:46.431Z,1014.35
2023-02-18T06:06:46.359Z,1014.44
2023-02-18T06:07:46.337Z,1014.41
2023-02-18T06:08:46.296Z,1014.40
2023-02-18T06:09:46.300Z,1014.43
2023-02-18T06:10:46.290Z,1014.40
2023-02-18T06:11:46.354Z,1014.38
2023-02-18T06:12:46.278Z,1014.41
2023-02-18T06:13:46.268Z,1014.41
2023-02-18T06:14:46.244Z,1014.37
2023-02-18T06:15:46.238Z,1014.44
2023-02-18T06:16:46.265Z,1014.42
2023-02-18T06:17:46.213Z,1014.33
2023-02-18T06:18:46.205Z,1014.37
2023-02-18T06:19:46.199Z,1014.34
2023-02-18T06:20:46.173Z,1014.29
2023-02-18T06:21:46.174Z,1014.22
2023-02-18T06:22:46.164Z,1014.23
2023-02-18T06:23:46.144Z,1014.23
2023-02-18T06:24:46.148Z,1014.16
2023-02-18T06:25:46.114Z,1014.17
2023-02-18T06:26:46.116Z,1014.16
2023-02-18T06:27:46.096Z,1014.10
2023-02-18T06:28:46.085Z,1014.08
2023-02-18T06:29:46.073Z,1014.14
2023-02-18T06:30:46.065Z,1014.10
2023-02-18T06:31:46.158Z,1014.12
2023-02-18T06:32:46.055Z,1014.10
2023-02-18T06:33:46.024Z,1014.12
2023-02-18T06:34:46.013Z,1014.10
2023-02-18T06:35:46.004Z,1014.07
2023-02-18T06:36:45.996Z,1014.09
2023-02-18T06:37:45.996Z,1014.17
2023-02-18T06:38:45.973Z,1014.20
2023-02-18T06:39:45.960Z,1014.18
2023-02-18T06:40:45.952Z,1014.09
2023-02-18T06:41:45.946Z,1014.13
2023-02-18T06:42:45.922Z,1014.06
2023-02-18T06:43:45.922Z,1014.11
2023-02-18T06:44:45.904Z,1014.09
2023-02-18T06:45:45.897Z,1014.11
2023-02-18T06:46:45.916Z,1014.08
2023-02-18T06:47:45.878Z,1014.09
2023-02-18T06:48:45.867Z,1014.07
2023-02-18T06:49:45.854Z,1014.09
2023-02-18T06:50:45.850Z,1014.12
2023-02-18T06:51:45.856Z,1014.12
2023-02-18T06:52:45.829Z,1014.11
2023-02-18T06:53:45.813Z,1014.14
2023-02-18T06:54:45.790Z,1014.16
2023-02-18T06:55:45.796Z,1014.19
2023-02-18T06:56:46.180Z,1014.17
2023-02-18T06:57:45.764Z,1014.13
2023-02-18T06:58:45.756Z,1014.13
2023-02-18T06:59:45.746Z,1014.18
2023-02-18T07:00:45.775Z,1014.14
2023-02-18T07:01:45.726Z,1014.15
2023-02-18T07:02:45.743Z,1014.14
2023-02-18T07:03:46.193Z,1014.10
2023-02-18T07:04:45.694Z,1014.11
2023-02-18T07:05:45.677Z,1014.09
2023-02-18T07:06:45.677Z,1014.06
2023-02-18T07:07:45.680Z,1014.03
2023-02-18T07:08:45.638Z,1014.03
2023-02-18T07:09:45.639Z,1014.07
2023-02-18T07:10:45.639Z,1013.97
2023-02-18T07:11:45.617Z,1014.05
2023-02-18T07:12:45.608Z,1014.10
2023-02-18T07:13:45.588Z,1014.05
2023-02-18T07:14:45.577Z,1014.10
2023-02-18T07:15:45.572Z,1014.17
2023-02-18T07:16:45.621Z,1014.15
2023-02-18T07:17:45.569Z,1014.20
2023-02-18T07:18:45.541Z,1014.17
2023-02-18T07:19:45.559Z,1014.22
2023-02-18T07:20:45.540Z,1014.21
2023-02-18T07:21:45.501Z,1014.25
2023-02-18T07:22:45.541Z,1014.25
2023-02-18T07:23:45.491Z,1014.34
2023-02-18T07:24:45.477Z,1014.36
2023-02-18T07:25:45.459Z,1014.37
2023-02-18T07:26:45.480Z,1014.38
2023-02-18T07:27:45.450Z,1014.37
2023-02-18T07:28:45.442Z,1014.40
2023-02-18T07:29:45.420Z,1014.40
2023-02-18T07:30:45.412Z,1014.42
2023-02-18T07:31:45.525Z,1014.45
2023-02-18T07:32:45.402Z,1014.53
2023-02-18T07:33:45.387Z,1014.55
2023-02-18T07:34:45.396Z,1014.53
2023-02-18T07:35:45.360Z,1014.56
2023-02-18T07:36:45.352Z,1014.56
2023-02-18T07:37:45.363Z,1014.56
2023-02-18T07:38:45.364Z,1014.57
2023-02-18T07:39:45.303Z,1014.54
2023-02-18T07:40:45.301Z,1014.60
2023-02-18T07:41:45.285Z,1014.61
2023-02-18T07:42:45.293Z,1014.60
2023-02-18T07:43:45.284Z,1014.63
2023-02-18T07:44:45.274Z,1014.62
2023-02-18T07:45:45.325Z,1014.64
2023-02-18T07:46:47.302Z,1014.62
2023-02-18T07:47:45.226Z,1014.58
2023-02-18T07:48:45.225Z,1014.55
2023-02-18T07:49:45.202Z,1014.58
2023-02-18T07:50:45.195Z,1014.50
2023-02-18T07:51:45.176Z,1014.54
2023-02-18T07:52:45.287Z,1014.52
2023-02-18T07:53:45.174Z,1014.52
2023-02-18T07:54:45.157Z,1014.53
2023-02-18T07:55:45.135Z,1014.52
2023-02-18T07:56:45.134Z,1014.45
2023-02-18T07:57:45.119Z,1014.47
2023-02-18T07:58:45.111Z,1014.44
2023-02-18T07:59:45.107Z,1014.42
2023-02-18T08:00:45.098Z,1014.46
2023-02-18T08:01:45.281Z,1014.43
2023-02-18T08:02:45.109Z,1014.43
2023-02-18T08:03:45.186Z,1014.45
2023-02-18T08:04:45.058Z,1014.41
2023-02-18T08:05:45.026Z,1014.39
2023-02-18T08:06:45.032Z,1014.40
2023-02-18T08:07:45.087Z,1014.45
2023-02-18T08:08:44.998Z,1014.48
2023-02-18T08:09:44.986Z,1014.54
2023-02-18T08:10:44.981Z,1014.55
2023-02-18T08:11:44.966Z,1014.55
2023-02-18T08:12:44.975Z,1014.58
2023-02-18T08:13:46.969Z,1014.54
2023-02-18T08:14:44.963Z,1014.52
2023-02-18T08:15:44.925Z,1014.58
2023-02-18T08:16:45.000Z,1014.62
2023-02-18T08:17:44.917Z,1014.65
2023-02-18T08:18:44.896Z,1014.63
2023-02-18T08:19:44.911Z,1014.66
2023-02-18T08:20:44.873Z,1014.69
2023-02-18T08:21:44.867Z,1014.74
2023-02-18T08:22:45.181Z,1014.75
2023-02-18T08:23:44.837Z,1014.82
2023-02-18T08:24:44.836Z,1014.78
2023-02-18T08:25:44.809Z,1014.81
2023-02-18T08:26:59.491Z,1014.87
2023-02-18T08:27:45.808Z,1014.91
2023-02-18T08:28:44.792Z,1014.93
2023-02-18T08:29:44.789Z,1014.93
2023-02-18T08:30:44.838Z,1014.93
2023-02-18T08:31:45.004Z,1014.92
2023-02-18T08:32:44.756Z,1014.91
2023-02-18T08:33:44.744Z,1014.89
2023-02-18T08:34:44.751Z,1014.82
2023-02-18T08:35:44.730Z,1014.90
2023-02-18T08:36:44.704Z,1014.88
2023-02-18T08:37:52.915Z,1014.89
2023-02-18T08:38:45.705Z,1014.88
2023-02-18T08:39:44.669Z,1014.86
2023-02-18T08:40:44.676Z,1014.91
2023-02-18T08:41:44.654Z,1015.01
2023-02-18T08:42:44.656Z,1014.97
2023-02-18T08:43:44.659Z,1015.07
2023-02-18T08:44:44.615Z,1015.07
2023-02-18T08:45:44.653Z,1015.11
2023-02-18T08:46:44.645Z,1015.11
2023-02-18T08:48:13.656Z,1015.23
2023-02-18T08:48:45.594Z,1015.14
2023-02-18T08:49:44.564Z,1015.17
2023-02-18T08:50:44.553Z,1015.10
2023-02-18T08:51:44.533Z,1015.14
2023-02-18T08:52:44.557Z,1015.16
2023-02-18T08:53:44.536Z,1015.08
2023-02-18T08:54:44.514Z,1015.10
2023-02-18T08:55:44.504Z,1015.11
2023-02-18T08:56:44.500Z,1015.21
2023-02-18T08:57:44.465Z,1015.25
2023-02-18T08:58:44.479Z,1015.24
2023-02-18T08:59:44.447Z,1015.17
2023-02-18T09:00:44.438Z,1015.17
2023-02-18T09:01:44.445Z,1015.22
2023-02-18T09:02:44.427Z,1015.26
2023-02-18T09:03:44.416Z,1015.19
2023-02-18T09:04:44.396Z,1015.18
2023-02-18T09:05:44.398Z,1015.20
2023-02-18T09:06:44.401Z,1015.06
2023-02-18T09:07:44.359Z,1015.11
2023-02-18T09:08:44.370Z,1015.16
2023-02-18T09:09:44.338Z,1015.18
2023-02-18T09:10:46.312Z,1015.04
2023-02-18T09:11:44.320Z,1015.07
2023-02-18T09:12:44.333Z,1015.11
2023-02-18T09:13:44.299Z,1015.10
2023-02-18T09:14:44.293Z,1015.12
2023-02-18T09:15:44.317Z,1015.06
2023-02-18T09:16:44.273Z,1015.10
2023-02-18T09:17:44.271Z,1015.06
2023-02-18T09:18:44.241Z,1015.08
2023-02-18T09:19:44.230Z,1014.98
2023-02-18T09:20:44.233Z,1015.05
2023-02-18T09:21:44.210Z,1015.07
2023-02-18T09:22:44.220Z,1015.07
2023-02-18T09:23:44.260Z,1014.99
2023-02-18T09:24:44.177Z,1015.00
2023-02-18T09:25:44.160Z,1015.02
2023-02-18T09:26:44.168Z,1015.11
2023-02-18T09:27:44.138Z,1015.11
2023-02-18T09:28:44.148Z,1015.08
2023-02-18T09:29:44.162Z,1015.07
2023-02-18T09:30:44.144Z,1015.02
2023-02-18T09:31:44.256Z,1015.01
2023-02-18T09:32:44.114Z,1014.92
2023-02-18T09:33:45.818Z,1015.00
2023-02-18T09:34:44.088Z,1014.88
2023-02-18T09:35:44.050Z,1014.91
2023-02-18T09:36:44.055Z,1014.85
2023-02-18T09:37:44.050Z,1014.88
2023-02-18T09:38:44.042Z,1014.87
2023-02-18T09:39:44.019Z,1014.86
2023-02-18T09:40:44.008Z,1014.77
2023-02-18T09:41:43.990Z,1014.83
2023-02-18T09:42:43.989Z,1014.80
2023-02-18T09:43:44.022Z,1014.82
2023-02-18T09:44:43.971Z,1014.86
2023-02-18T09:45:43.944Z,1014.82
2023-02-18T09:46:43.939Z,1014.76
2023-02-18T09:47:43.950Z,1014.78
2023-02-18T09:48:43.918Z,1014.80
2023-02-18T09:49:43.901Z,1014.82
2023-02-18T09:50:43.911Z,1014.85
2023-02-18T09:51:43.891Z,1014.84
2023-02-18T09:52:43.912Z,1014.89
2023-02-18T09:53:43.862Z,1014.88
2023-02-18T09:54:43.860Z,1014.81
2023-02-18T09:55:43.842Z,1014.89
2023-02-18T09:56:43.839Z,1014.77
2023-02-18T09:57:43.848Z,1014.77
2023-02-18T09:58:43.805Z,1014.66
2023-02-18T09:59:43.804Z,1014.63
2023-02-18T10:00:43.801Z,1014.57
2023-02-18T10:01:43.835Z,1014.59
2023-02-18T10:02:43.784Z,1014.59
2023-02-18T10:03:43.785Z,1014.58
2023-02-18T10:04:43.771Z,1014.55
2023-02-18T10:05:43.753Z,1014.63
2023-02-18T10:06:43.733Z,1014.48
2023-02-18T10:07:43.727Z,1014.58
2023-02-18T10:08:43.723Z,1014.54
2023-02-18T10:09:43.696Z,1014.48
2023-02-18T10:10:43.701Z,1014.52
2023-02-18T10:11:43.669Z,1014.51
2023-02-18T10:12:43.682Z,1014.47
2023-02-18T10:13:43.660Z,1014.51
2023-02-18T10:14:43.627Z,1014.53
2023-02-18T10:15:43.670Z,1014.49
2023-02-18T10:16:43.630Z,1014.54
2023-02-18T10:17:43.607Z,1014.45
2023-02-18T10:18:43.638Z,1014.47
2023-02-18T10:19:43.584Z,1014.47
2023-02-18T10:20:43.580Z,1014.53
2023-02-18T10:21:43.562Z,1014.43
2023-02-18T10:22:43.554Z,1014.42
2023-02-18T10:23:43.550Z,1014.42
2023-02-18T10:24:43.534Z,1014.35
2023-02-18T10:25:43.522Z,1014.35
2023-02-18T10:26:43.502Z,1014.43
2023-02-18T10:27:43.483Z,1014.46
2023-02-18T10:28:43.503Z,1014.49
2023-02-18T10:29:43.472Z,1014.45
2023-02-18T10:30:43.485Z,1014.50
2023-02-18T10:31:43.525Z,1014.46
2023-02-18T10:32:43.445Z,1014.43
2023-02-18T10:33:43.443Z,1014.47
2023-02-18T10:34:43.415Z,1014.40
2023-02-18T10:35:43.423Z,1014.47
2023-02-18T10:36:43.403Z,1014.47
2023-02-18T10:37:43.386Z,1014.42
2023-02-18T10:38:43.407Z,1014.38
2023-02-18T10:39:43.365Z,1014.36
2023-02-18T10:40:43.385Z,1014.33
2023-02-18T10:41:43.335Z,1014.27
2023-02-18T10:42:43.327Z,1014.28
2023-02-18T10:43:43.328Z,1014.30
2023-02-18T10:44:43.307Z,1014.22
2023-02-18T10:45:43.298Z,1014.27
2023-02-18T10:46:43.314Z,1014.23
2023-02-18T10:47:43.280Z,1014.22
2023-02-18T10:48:43.273Z,1014.22
2023-02-18T10:49:43.257Z,1014.16
2023-02-18T10:50:43.249Z,1014.18
2023-02-18T10:51:43.238Z,1014.30
2023-02-18T10:52:43.228Z,1014.31
2023-02-18T10:53:43.209Z,1014.32
2023-02-18T10:54:43.189Z,1014.27
2023-02-18T10:55:43.220Z,1014.37
2023-02-18T10:56:43.215Z,1014.32
2023-02-18T10:57:43.152Z,1014.29
2023-02-18T10:58:43.176Z,1014.35
2023-02-18T10:59:43.139Z,1014.28
2023-02-18T11:00:43.133Z,1014.24
2023-02-18T11:01:43.160Z,1014.20
2023-02-18T11:02:43.118Z,1014.24
2023-02-18T11:03:43.130Z,1014.29
2023-02-18T11:04:43.182Z,1014.30
2023-02-18T11:05:43.094Z,1014.32
2023-02-18T11:06:43.072Z,1014.36
2023-02-18T11:07:43.041Z,1014.36
2023-02-18T11:08:43.047Z,1014.31
2023-02-18T11:09:45.711Z,1014.33
2023-02-18T11:10:43.034Z,1014.36
2023-02-18T11:11:45.702Z,1014.28
2023-02-18T11:12:43.988Z,1014.42
2023-02-18T11:13:42.993Z,1014.35
2023-02-18T11:14:42.983Z,1014.37
2023-02-18T11:15:42.985Z,1014.32
2023-02-18T11:16:42.950Z,1014.28
2023-02-18T11:17:42.956Z,1014.42
2023-02-18T11:18:42.941Z,1014.38
2023-02-18T11:19:42.931Z,1014.40
2023-02-18T11:20:42.912Z,1014.48
2023-02-18T11:21:42.891Z,1014.48
2023-02-18T11:22:42.881Z,1014.50
2023-02-18T11:23:42.899Z,1014.56
2023-02-18T11:24:42.871Z,1014.61
2023-02-18T11:25:42.860Z,1014.55
2023-02-18T11:26:42.842Z,1014.54
2023-02-18T11:27:42.825Z,1014.50
2023-02-18T11:28:42.850Z,1014.56
2023-02-18T11:29:42.812Z,1014.54
2023-02-18T11:30:42.806Z,1014.52
2023-02-18T11:31:42.898Z,1014.55
2023-02-18T11:32:42.783Z,1014.55
2023-02-18T11:33:42.772Z,1014.55
2023-02-18T11:34:42.762Z,1014.57
2023-02-18T11:35:42.743Z,1014.54
2023-02-18T11:36:42.733Z,1014.60
2023-02-18T11:37:42.717Z,1014.53
2023-02-18T11:38:44.359Z,1014.56
2023-02-18T11:39:42.695Z,1014.50
2023-02-18T11:40:42.687Z,1014.54
2023-02-18T11:41:42.680Z,1014.53
2023-02-18T11:42:42.673Z,1014.55
2023-02-18T11:43:42.665Z,1014.54
2023-02-18T11:44:42.645Z,1014.54
2023-02-18T11:45:42.636Z,1014.56
2023-02-18T11:46:42.661Z,1014.56
2023-02-18T11:47:42.606Z,1014.59
2023-02-18T11:48:42.615Z,1014.60
2023-02-18T11:49:42.595Z,1014.57
2023-02-18T11:50:42.595Z,1014.53
2023-02-18T11:51:42.568Z,1014.59
2023-02-18T11:52:42.567Z,1014.55
2023-02-18T11:53:42.559Z,1014.54
2023-02-18T11:54:42.550Z,1014.51
2023-02-18T11:55:42.529Z,1014.48
2023-02-18T11:56:42.520Z,1014.52
2023-02-18T11:57:42.501Z,1014.59
2023-02-18T11:58:42.541Z,1014.64
2023-02-18T11:59:42.484Z,1014.58
2023-02-18T12:00:42.472Z,1014.58
2023-02-18T12:01:42.474Z,1014.59
2023-02-18T12:02:42.492Z,1014.53
2023-02-18T12:03:42.466Z,1014.53
2023-02-18T12:04:42.461Z,1014.50
2023-02-18T12:05:42.418Z,1014.55